createdAt,value
2018-09-01T00:04:45.156Z,6.35
2018-09-01T00:09:38.483Z,5.45
2018-09-01T00:14:31.756Z,6.08
2018-09-01T00:19:25.002Z,5.58
2018-09-01T00:24:18.274Z,5.25
2018-09-01T00:29:11.524Z,6.22
2018-09-01T00:34:05.425Z,6.58
2018-09-01T00:39:02.432Z,3.70
2018-09-01T00:43:55.724Z,5.97
2018-09-01T00:48:48.993Z,5.15
2018-09-01T00:53:43.349Z,6.80
2018-09-01T00:58:36.602Z,5.55
2018-09-01T01:03:31.910Z,5.75
2018-09-01T01:08:25.180Z,5.40
2018-09-01T01:13:18.449Z,3.90
2018-09-01T01:18:11.699Z,5.45
2018-09-01T01:23:04.967Z,4.22
2018-09-01T01:27:58.230Z,4.05
2018-09-01T01:32:51.538Z,4.40
2018-09-01T01:37:44.818Z,4.25
2018-09-01T01:42:38.075Z,4.78
2018-09-01T01:47:31.263Z,5.85
2018-09-01T01:52:24.537Z,6.20
2018-09-01T01:57:17.786Z,5.05
2018-09-01T02:02:11.163Z,5.00
2018-09-01T02:07:04.492Z,4.95
2018-09-01T02:11:57.771Z,6.15
2018-09-01T02:16:51.065Z,4.67
2018-09-01T02:21:44.403Z,4.65
2018-09-01T02:26:37.999Z,4.20
2018-09-01T02:31:31.320Z,3.15
2018-09-01T02:36:24.605Z,3.98
2018-09-01T02:41:17.868Z,4.72
2018-09-01T02:46:11.189Z,4.53
2018-09-01T02:51:04.508Z,4.90
2018-09-01T02:55:57.812Z,3.83
2018-09-01T03:00:56.644Z,4.58
2018-09-01T03:05:49.922Z,4.62
2018-09-01T03:10:43.229Z,3.33
2018-09-01T03:15:36.448Z,3.65
2018-09-01T03:20:29.791Z,4.78
2018-09-01T03:25:23.095Z,6.08
2018-09-01T03:30:16.410Z,3.45
2018-09-01T03:35:09.754Z,3.67
2018-09-01T03:40:03.050Z,4.35
2018-09-01T03:44:56.334Z,4.08
2018-09-01T03:49:49.660Z,8.80
2018-09-01T03:54:42.930Z,4.70
2018-09-01T03:59:36.185Z,5.70
2018-09-01T04:04:29.505Z,4.53
2018-09-01T04:09:22.764Z,4.78
2018-09-01T04:14:16.060Z,5.70
2018-09-01T04:19:24.126Z,4.90
2018-09-01T04:24:17.434Z,5.37
2018-09-01T04:29:10.662Z,5.65
2018-09-01T04:34:03.948Z,3.55
2018-09-01T04:38:57.208Z,4.60
2018-09-01T04:43:50.514Z,6.50
2018-09-01T04:48:43.838Z,3.92
2018-09-01T04:53:37.134Z,5.08
2018-09-01T04:58:31.381Z,4.08
2018-09-01T05:03:24.698Z,5.25
2018-09-01T05:08:17.928Z,5.80
2018-09-01T05:13:11.284Z,11.33
2018-09-01T05:18:04.584Z,4.20
2018-09-01T05:22:58.009Z,4.33
2018-09-01T05:27:51.264Z,3.90
2018-09-01T05:32:44.534Z,4.67
2018-09-01T05:37:37.896Z,6.45
2018-09-01T05:42:31.275Z,8.73
2018-09-01T05:47:24.592Z,9.75
2018-09-01T05:52:17.912Z,7.60
2018-09-01T05:57:11.182Z,6.17
2018-09-01T06:02:04.454Z,7.78
2018-09-01T06:06:57.784Z,4.72
2018-09-01T06:11:51.017Z,6.10
2018-09-01T06:16:44.334Z,5.62
2018-09-01T06:21:37.587Z,5.42
2018-09-01T06:26:30.886Z,4.95
2018-09-01T06:31:24.200Z,4.08
2018-09-01T06:36:17.596Z,5.47
2018-09-01T06:41:10.897Z,5.22
2018-09-01T06:46:04.153Z,6.97
2018-09-01T06:50:57.451Z,7.30
2018-09-01T06:55:51.300Z,5.78
2018-09-01T07:00:47.354Z,7.35
2018-09-01T07:05:40.705Z,7.25
2018-09-01T07:10:34.005Z,5.40
2018-09-01T07:15:27.281Z,7.30
2018-09-01T07:20:20.543Z,5.42
2018-09-01T07:25:13.798Z,8.00
2018-09-01T07:30:09.062Z,7.05
2018-09-01T07:35:02.307Z,8.83
2018-09-01T07:39:55.562Z,6.90
2018-09-01T07:44:48.905Z,6.80
2018-09-01T07:49:42.222Z,7.10
2018-09-01T07:54:35.546Z,6.55
2018-09-01T07:59:28.794Z,8.83
2018-09-01T08:04:22.068Z,8.30
2018-09-01T08:09:15.360Z,8.20
2018-09-01T08:14:08.801Z,7.92
2018-09-01T08:19:02.015Z,8.00
2018-09-01T08:23:55.289Z,6.10
2018-09-01T08:28:48.564Z,9.38
2018-09-01T08:33:43.045Z,3.62
2018-09-01T08:38:36.274Z,7.33
2018-09-01T08:43:29.535Z,5.37
2018-09-01T08:48:22.804Z,3.52
2018-09-01T08:53:16.279Z,7.05
2018-09-01T08:58:09.534Z,5.37
2018-09-01T09:03:02.813Z,2.92
2018-09-01T09:07:56.136Z,2.58
2018-09-01T09:12:49.401Z,4.05
2018-09-01T09:17:42.657Z,3.47
2018-09-01T09:22:36.881Z,3.35
2018-09-01T09:27:31.721Z,4.95
2018-09-01T09:32:25.012Z,4.35
2018-09-01T09:37:18.487Z,5.15
2018-09-01T09:42:16.009Z,4.03
2018-09-01T09:47:09.326Z,4.50
2018-09-01T09:52:02.790Z,4.53
2018-09-01T09:57:00.340Z,5.60
2018-09-01T10:02:02.139Z,3.85
2018-09-01T10:07:00.469Z,3.47
2018-09-01T10:11:53.876Z,2.65
2018-09-01T10:16:53.183Z,4.17
2018-09-01T10:21:51.530Z,2.12
2018-09-01T10:26:49.407Z,3.83
2018-09-01T10:31:46.625Z,2.22
2018-09-01T10:36:39.932Z,3.20
2018-09-01T10:41:33.280Z,1.82
2018-09-01T10:46:26.567Z,2.95
2018-09-01T10:51:19.823Z,2.90
2018-09-01T10:56:13.116Z,3.60
2018-09-01T11:01:06.432Z,1.27
2018-09-01T11:05:59.718Z,3.30
2018-09-01T11:10:53.006Z,1.55
2018-09-01T11:15:46.269Z,1.45
2018-09-01T11:20:39.715Z,3.17
2018-09-01T11:25:33.052Z,5.75
2018-09-01T11:30:26.298Z,2.55
2018-09-01T11:35:19.597Z,4.05
2018-09-01T11:40:12.899Z,3.47
2018-09-01T11:45:06.282Z,3.30
2018-09-01T11:49:59.577Z,1.40
2018-09-01T11:54:52.865Z,2.72
2018-09-01T11:59:46.157Z,3.75
2018-09-01T12:04:39.415Z,2.08
2018-09-01T12:09:32.708Z,4.00
2018-09-01T12:14:26.017Z,3.67
2018-09-01T12:19:19.252Z,2.42
2018-09-01T12:24:12.599Z,4.15
2018-09-01T12:29:05.896Z,2.37
2018-09-01T12:33:59.222Z,2.25
2018-09-01T12:38:52.489Z,4.17
2018-09-01T12:43:46.886Z,3.15
2018-09-01T12:48:40.258Z,2.27
2018-09-01T12:53:33.661Z,2.27
2018-09-01T12:58:26.955Z,2.08
2018-09-01T13:03:20.254Z,2.08
2018-09-01T13:08:13.552Z,2.75
2018-09-01T13:13:06.857Z,3.62
2018-09-01T13:18:00.094Z,1.90
2018-09-01T13:22:53.375Z,3.25
2018-09-01T13:27:46.703Z,3.60
2018-09-01T13:32:39.995Z,2.52
2018-09-01T13:37:33.281Z,2.22
2018-09-01T13:42:26.583Z,2.55
2018-09-01T13:47:19.912Z,3.20
2018-09-01T13:52:13.168Z,2.70
2018-09-01T13:57:07.158Z,3.75
2018-09-01T14:02:00.482Z,2.98
2018-09-01T14:06:53.754Z,3.17
2018-09-01T14:11:47.064Z,4.60
2018-09-01T14:16:40.337Z,2.67
2018-09-01T14:21:33.691Z,2.22
2018-09-01T14:26:31.504Z,4.83
2018-09-01T14:31:29.433Z,3.60
2018-09-01T14:36:26.735Z,2.58
2018-09-01T14:41:23.470Z,3.25
2018-09-01T14:46:20.879Z,3.75
2018-09-01T14:51:18.880Z,4.28
2018-09-01T14:56:16.872Z,3.95
2018-09-01T15:01:13.228Z,5.30
2018-09-01T15:06:06.748Z,4.33
2018-09-01T15:11:04.863Z,3.55
2018-09-01T15:15:58.122Z,3.83
2018-09-01T15:20:51.586Z,3.42
2018-09-01T15:25:45.109Z,2.75
2018-09-01T15:30:38.410Z,3.22
2018-09-01T15:35:31.749Z,2.95
2018-09-01T15:40:25.176Z,3.72
2018-09-01T15:45:18.510Z,5.60
2018-09-01T15:50:11.826Z,3.47
2018-09-01T15:55:06.190Z,4.53
2018-09-01T16:00:00.049Z,4.25
2018-09-01T16:04:53.379Z,8.05
2018-09-01T16:09:46.850Z,5.17
2018-09-01T16:14:40.191Z,5.40
2018-09-01T16:19:33.506Z,3.57
2018-09-01T16:24:26.791Z,2.87
2018-09-01T16:29:20.202Z,4.85
2018-09-01T16:34:13.531Z,7.60
2018-09-01T16:39:06.947Z,5.85
2018-09-01T16:44:00.280Z,3.45
2018-09-01T16:48:53.582Z,5.42
2018-09-01T16:53:46.864Z,3.15
2018-09-01T16:58:40.197Z,4.80
2018-09-01T17:03:33.516Z,6.03
2018-09-01T17:08:26.839Z,6.08
2018-09-01T17:13:20.201Z,2.12
2018-09-01T17:18:13.601Z,6.00
2018-09-01T17:23:06.982Z,3.52
2018-09-01T17:28:00.331Z,5.47
2018-09-01T17:32:53.798Z,4.08
2018-09-01T17:37:47.148Z,8.43
2018-09-01T17:42:41.580Z,3.17
2018-09-01T17:47:34.924Z,4.40
2018-09-01T17:52:28.192Z,6.85
2018-09-01T17:57:21.579Z,3.75
2018-09-01T18:02:14.962Z,3.80
2018-09-01T18:07:08.346Z,5.53
2018-09-01T18:12:01.688Z,5.33
2018-09-01T18:16:55.026Z,4.85
2018-09-01T18:21:49.249Z,6.08
2018-09-01T18:26:42.521Z,3.75
2018-09-01T18:31:35.882Z,4.87
2018-09-01T18:36:29.196Z,5.45
2018-09-01T18:41:22.732Z,5.55
2018-09-01T18:46:15.981Z,8.40
2018-09-01T18:51:09.278Z,5.90
2018-09-01T18:56:02.608Z,6.55
2018-09-01T19:00:56.183Z,6.00
2018-09-01T19:05:49.516Z,6.10
2018-09-01T19:10:42.842Z,11.12
2018-09-01T19:15:36.122Z,7.47
2018-09-01T19:20:29.455Z,9.03
2018-09-01T19:25:22.740Z,7.05
2018-09-01T19:30:16.081Z,5.20
2018-09-01T19:35:09.457Z,5.72
2018-09-01T19:40:02.787Z,9.48
2018-09-01T19:44:56.174Z,8.33
2018-09-01T19:49:49.421Z,8.13
2018-09-01T19:54:42.786Z,9.25
2018-09-01T19:59:36.131Z,8.58
2018-09-01T20:04:29.480Z,8.10
2018-09-01T20:09:22.801Z,8.55
2018-09-01T20:14:16.189Z,7.42
2018-09-01T20:19:09.478Z,10.03
2018-09-01T20:24:02.874Z,11.83
2018-09-01T20:28:56.186Z,9.23
2018-09-01T20:33:49.486Z,11.08
2018-09-01T20:38:43.080Z,9.65
2018-09-01T20:43:36.426Z,9.70
2018-09-01T20:48:29.777Z,10.40
2018-09-01T20:53:23.089Z,11.60
2018-09-01T20:58:16.353Z,7.15
2018-09-01T21:03:09.665Z,6.15
2018-09-01T21:08:02.996Z,7.80
2018-09-01T21:12:56.296Z,7.83
2018-09-01T21:17:49.597Z,5.28
2018-09-01T21:22:42.953Z,6.87
2018-09-01T21:27:36.243Z,7.67
2018-09-01T21:32:29.574Z,9.30
2018-09-01T21:37:22.926Z,10.18
2018-09-01T21:42:16.220Z,9.58
2018-09-01T21:47:09.817Z,8.20
2018-09-01T21:52:03.178Z,7.65
2018-09-01T21:56:56.526Z,6.50
2018-09-01T22:01:55.231Z,8.23
2018-09-01T22:06:48.518Z,7.15
2018-09-01T22:11:41.885Z,5.50
2018-09-01T22:16:35.174Z,6.60
2018-09-01T22:21:28.490Z,8.33
2018-09-01T22:26:21.784Z,8.18
2018-09-01T22:31:15.089Z,8.60
2018-09-01T22:36:08.377Z,6.50
2018-09-01T22:41:01.747Z,10.60
2018-09-01T22:45:55.086Z,7.85
2018-09-01T22:50:48.493Z,5.42
2018-09-01T22:55:41.822Z,6.62
2018-09-01T23:00:35.121Z,9.93
2018-09-01T23:05:28.434Z,8.55
2018-09-01T23:10:21.806Z,7.28
2018-09-01T23:15:15.121Z,8.58
2018-09-01T23:20:08.450Z,6.33
2018-09-01T23:25:01.728Z,7.40
2018-09-01T23:29:55.028Z,7.10
2018-09-01T23:34:48.328Z,6.35
2018-09-01T23:39:41.691Z,6.75
2018-09-01T23:44:34.976Z,6.30
2018-09-01T23:49:28.748Z,7.55
2018-09-01T23:54:22.021Z,6.83
2018-09-01T23:59:15.354Z,10.85
